createdAt,value
2023-04-07T00:00:06.006Z,4.94
2023-04-07T00:02:33.242Z,4.93
2023-04-07T00:05:00.170Z,4.71
2023-04-07T00:07:26.902Z,4.54
2023-04-07T00:09:53.507Z,4.38
2023-04-07T00:12:20.637Z,4.13
2023-04-07T00:14:47.253Z,4.41
2023-04-07T00:17:13.842Z,4.67
2023-04-07T00:19:40.548Z,5.23
2023-04-07T00:22:07.140Z,4.75
2023-04-07T00:24:34.831Z,4.93
2023-04-07T00:27:02.170Z,4.68
2023-04-07T00:29:28.809Z,4.65
2023-04-07T00:31:55.429Z,4.19
2023-04-07T00:34:22.072Z,4.69
2023-04-07T00:36:52.220Z,4.67
2023-04-07T00:39:19.479Z,3.98
2023-04-07T00:41:46.814Z,4.28
2023-04-07T00:44:14.144Z,5.01
2023-04-07T00:46:41.628Z,4.72
2023-04-07T00:49:11.098Z,4.63
2023-04-07T00:51:38.199Z,4.31
2023-04-07T00:54:05.549Z,4.46
2023-04-07T00:56:32.417Z,4.83
2023-04-07T00:58:59.082Z,4.74
2023-04-07T01:01:31.685Z,4.45
2023-04-07T01:04:04.456Z,4.66
2023-04-07T01:06:36.751Z,4.36
2023-04-07T01:09:42.900Z,4.30
2023-04-07T01:12:43.098Z,4.57
2023-04-07T01:15:12.309Z,4.29
2023-04-07T01:17:45.068Z,4.33
2023-04-07T01:20:16.517Z,4.31
2023-04-07T01:22:47.079Z,4.12
2023-04-07T01:25:31.405Z,3.84
2023-04-07T01:28:22.288Z,4.20
2023-04-07T01:30:51.289Z,4.42
2023-04-07T01:33:18.949Z,4.17
2023-04-07T01:35:46.931Z,4.42
2023-04-07T01:38:14.367Z,4.80
2023-04-07T01:40:41.709Z,5.00
2023-04-07T01:43:09.066Z,5.24
2023-04-07T01:45:36.513Z,5.13
2023-04-07T01:48:07.019Z,5.13
2023-04-07T01:50:34.511Z,5.69
2023-04-07T01:53:01.971Z,5.67
2023-04-07T01:55:28.911Z,5.15
2023-04-07T01:57:55.488Z,4.66
2023-04-07T02:00:22.732Z,4.54
2023-04-07T02:02:52.342Z,4.69
2023-04-07T02:05:21.898Z,4.41
2023-04-07T02:08:06.339Z,4.59
2023-04-07T02:10:36.322Z,4.54
2023-04-07T02:13:06.532Z,4.71
2023-04-07T02:15:34.125Z,5.17
2023-04-07T02:18:02.382Z,5.13
2023-04-07T02:20:30.689Z,5.12
2023-04-07T02:22:57.586Z,4.82
2023-04-07T02:25:30.359Z,4.66
2023-04-07T02:27:58.857Z,5.09
2023-04-07T02:30:26.364Z,5.21
2023-04-07T02:32:53.713Z,4.31
2023-04-07T02:35:21.208Z,4.59
2023-04-07T02:37:48.070Z,4.82
2023-04-07T02:40:15.006Z,4.46
2023-04-07T02:42:42.058Z,5.21
2023-04-07T02:45:09.912Z,4.83
2023-04-07T02:47:37.532Z,5.51
2023-04-07T02:50:04.785Z,5.38
2023-04-07T02:52:31.450Z,5.15
2023-04-07T02:54:58.001Z,4.91
2023-04-07T02:57:24.568Z,5.44
2023-04-07T02:59:51.438Z,4.81
2023-04-07T03:02:18.122Z,4.70
2023-04-07T03:04:44.806Z,4.58
2023-04-07T03:07:11.679Z,4.47
2023-04-07T03:09:38.308Z,5.16
2023-04-07T03:12:04.940Z,5.16
2023-04-07T03:14:31.547Z,4.92
2023-04-07T03:16:58.160Z,4.78
2023-04-07T03:19:24.884Z,4.69
2023-04-07T03:21:51.715Z,5.01
2023-04-07T03:24:18.574Z,5.75
2023-04-07T03:26:45.284Z,4.95
2023-04-07T03:29:11.972Z,4.65
2023-04-07T03:31:38.912Z,4.30
2023-04-07T03:34:05.584Z,4.98
2023-04-07T03:36:32.159Z,5.35
2023-04-07T03:38:58.835Z,5.33
2023-04-07T03:41:25.490Z,4.95
2023-04-07T03:43:52.404Z,4.62
2023-04-07T03:46:22.362Z,4.84
2023-04-07T03:48:49.205Z,4.84
2023-04-07T03:51:16.239Z,4.81
2023-04-07T03:53:42.888Z,4.56
2023-04-07T03:56:09.904Z,4.99
2023-04-07T03:58:36.816Z,4.50
2023-04-07T04:01:03.581Z,4.98
2023-04-07T04:03:30.425Z,4.45
2023-04-07T04:05:57.134Z,4.52
2023-04-07T04:08:24.121Z,4.28
2023-04-07T04:10:51.317Z,5.14
2023-04-07T04:13:17.917Z,4.55
2023-04-07T04:15:44.567Z,4.35
2023-04-07T04:18:11.636Z,4.87
2023-04-07T04:20:38.284Z,4.72
2023-04-07T04:23:04.890Z,4.56
2023-04-07T04:25:31.447Z,4.31
2023-04-07T04:27:58.074Z,5.01
2023-04-07T04:30:24.805Z,4.62
2023-04-07T04:32:51.614Z,4.69
2023-04-07T04:35:18.388Z,5.26
2023-04-07T04:37:45.126Z,4.99
2023-04-07T04:40:12.472Z,5.08
2023-04-07T04:42:39.392Z,4.73
2023-04-07T04:45:07.053Z,5.29
2023-04-07T04:47:33.791Z,5.39
2023-04-07T04:50:00.544Z,4.86
2023-04-07T04:52:27.412Z,4.61
2023-04-07T04:54:55.189Z,5.32
2023-04-07T04:57:21.766Z,5.45
2023-04-07T04:59:48.491Z,6.18
2023-04-07T05:02:15.408Z,4.96
2023-04-07T05:04:42.160Z,5.47
2023-04-07T05:07:08.808Z,5.65
2023-04-07T05:09:35.397Z,6.07
2023-04-07T05:12:02.659Z,5.32
2023-04-07T05:14:29.303Z,5.32
2023-04-07T05:16:55.951Z,5.45
2023-04-07T05:19:22.597Z,5.71
2023-04-07T05:21:49.178Z,5.96
2023-04-07T05:24:15.889Z,5.38
2023-04-07T05:26:42.546Z,5.20
2023-04-07T05:29:09.106Z,5.05
2023-04-07T05:31:37.649Z,5.11
2023-04-07T05:34:04.379Z,5.48
2023-04-07T05:36:31.791Z,6.19
2023-04-07T05:38:58.479Z,5.78
2023-04-07T05:41:25.031Z,6.03
2023-04-07T05:43:51.920Z,6.19
2023-04-07T05:46:18.764Z,6.52
2023-04-07T05:48:45.573Z,6.57
2023-04-07T05:51:12.208Z,6.43
2023-04-07T05:53:40.534Z,6.07
2023-04-07T05:56:07.360Z,5.77
2023-04-07T05:58:33.997Z,5.63
2023-04-07T06:01:00.559Z,6.36
2023-04-07T06:03:27.256Z,6.06
2023-04-07T06:05:53.886Z,5.77
2023-04-07T06:08:20.587Z,5.77
2023-04-07T06:10:47.185Z,6.44
2023-04-07T06:13:14.034Z,5.97
2023-04-07T06:15:40.641Z,6.37
2023-04-07T06:18:07.243Z,6.83
2023-04-07T06:20:33.841Z,6.95
2023-04-07T06:23:00.464Z,6.96
2023-04-07T06:25:27.254Z,6.79
2023-04-07T06:27:55.693Z,6.75
2023-04-07T06:30:22.373Z,7.01
2023-04-07T06:32:49.000Z,6.47
2023-04-07T06:35:16.084Z,6.24
2023-04-07T06:37:42.773Z,6.21
2023-04-07T06:40:09.786Z,7.26
2023-04-07T06:42:36.492Z,7.11
2023-04-07T06:45:04.182Z,6.68
2023-04-07T06:47:30.862Z,6.48
2023-04-07T06:49:57.595Z,6.60
2023-04-07T06:52:24.197Z,7.40
2023-04-07T06:54:50.864Z,7.47
2023-04-07T06:57:17.435Z,7.76
2023-04-07T06:59:44.294Z,8.05
2023-04-07T07:02:11.053Z,7.96
2023-04-07T07:04:37.922Z,8.28
2023-04-07T07:07:04.581Z,8.36
2023-04-07T07:09:31.443Z,7.62
2023-04-07T07:11:58.057Z,7.77
2023-04-07T07:14:24.662Z,8.05
2023-04-07T07:16:51.275Z,8.75
2023-04-07T07:19:17.841Z,8.56
2023-04-07T07:21:44.477Z,8.47
2023-04-07T07:24:11.020Z,7.46
2023-04-07T07:26:37.635Z,7.75
2023-04-07T07:29:04.238Z,8.22
2023-04-07T07:31:31.616Z,8.54
2023-04-07T07:33:58.432Z,8.61
2023-04-07T07:36:25.180Z,7.91
2023-04-07T07:38:51.941Z,8.28
2023-04-07T07:41:18.720Z,8.29
2023-04-07T07:43:45.494Z,8.46
2023-04-07T07:46:12.325Z,8.22
2023-04-07T07:48:39.103Z,8.30
2023-04-07T07:51:06.187Z,7.91
2023-04-07T07:53:32.751Z,8.26
2023-04-07T07:55:59.444Z,8.07
2023-04-07T07:58:26.143Z,7.32
2023-04-07T08:00:52.802Z,7.80
2023-04-07T08:03:22.615Z,7.55
2023-04-07T08:05:50.436Z,7.98
2023-04-07T08:08:17.026Z,8.38
2023-04-07T08:10:43.855Z,8.67
2023-04-07T08:13:10.734Z,9.02
2023-04-07T08:15:37.328Z,9.09
2023-04-07T08:18:06.468Z,8.78
2023-04-07T08:20:33.818Z,9.36
2023-04-07T08:23:02.236Z,8.50
2023-04-07T08:25:29.797Z,8.62
2023-04-07T08:27:56.568Z,8.41
2023-04-07T08:30:23.316Z,8.61
2023-04-07T08:32:50.150Z,8.88
2023-04-07T08:35:16.824Z,8.37
2023-04-07T08:37:44.558Z,8.70
2023-04-07T08:40:12.410Z,8.33
2023-04-07T08:42:43.039Z,8.22
2023-04-07T08:45:10.124Z,8.80
2023-04-07T08:47:38.504Z,8.29
2023-04-07T08:50:07.943Z,9.49
2023-04-07T08:52:37.531Z,8.87
2023-04-07T08:55:06.742Z,8.38
2023-04-07T08:57:34.100Z,8.44
2023-04-07T09:00:08.201Z,8.61
2023-04-07T09:02:37.781Z,8.15
2023-04-07T09:05:06.713Z,8.70
2023-04-07T09:07:35.444Z,9.61
2023-04-07T09:10:02.588Z,9.79
2023-04-07T09:12:30.712Z,9.63
2023-04-07T09:14:58.124Z,9.36
2023-04-07T09:17:28.725Z,8.78
2023-04-07T09:20:00.051Z,9.57
2023-04-07T09:22:47.389Z,9.65
2023-04-07T09:25:27.560Z,9.57
2023-04-07T09:28:02.028Z,10.00
2023-04-07T09:30:30.483Z,9.06
2023-04-07T09:32:58.482Z,9.11
2023-04-07T09:35:25.241Z,9.06
2023-04-07T09:38:09.301Z,9.29
2023-04-07T09:40:37.429Z,9.35
2023-04-07T09:43:05.458Z,8.58
2023-04-07T09:45:36.209Z,8.52
2023-04-07T09:48:08.012Z,8.23
2023-04-07T09:50:42.074Z,8.39
2023-04-07T09:53:08.704Z,8.74
2023-04-07T09:55:36.327Z,9.17
2023-04-07T09:58:04.556Z,9.59
2023-04-07T10:00:31.253Z,9.57
2023-04-07T10:02:58.888Z,9.33
2023-04-07T10:05:25.837Z,9.64
2023-04-07T10:07:53.206Z,9.94
2023-04-07T10:10:19.951Z,9.60
2023-04-07T10:12:49.678Z,10.48
2023-04-07T10:15:16.399Z,10.25
2023-04-07T10:17:50.009Z,10.26
2023-04-07T10:20:22.836Z,9.49
2023-04-07T10:22:53.828Z,9.68
2023-04-07T10:25:24.667Z,10.17
2023-04-07T10:27:54.867Z,10.16
2023-04-07T10:30:25.465Z,10.11
2023-04-07T10:32:54.292Z,9.59
2023-04-07T10:35:22.288Z,9.90
2023-04-07T10:38:07.927Z,10.16
2023-04-07T10:40:35.891Z,9.98
2023-04-07T10:43:03.265Z,10.02
2023-04-07T10:45:56.099Z,10.00
2023-04-07T10:48:23.403Z,10.13
2023-04-07T10:51:05.001Z,9.79
2023-04-07T10:53:31.848Z,9.34
2023-04-07T10:56:00.367Z,9.33
2023-04-07T10:58:31.087Z,10.01
2023-04-07T11:01:00.796Z,9.68
2023-04-07T11:03:29.823Z,9.66
2023-04-07T11:06:09.590Z,9.75
2023-04-07T11:08:45.663Z,10.18
2023-04-07T11:11:16.162Z,9.52
2023-04-07T11:13:43.361Z,9.71
2023-04-07T11:16:10.819Z,9.56
2023-04-07T11:18:38.090Z,9.61
2023-04-07T11:21:06.840Z,9.46
2023-04-07T11:23:44.552Z,9.74
2023-04-07T11:26:13.218Z,9.81
2023-04-07T11:28:53.073Z,9.11
2023-04-07T11:31:27.606Z,9.56
2023-04-07T11:33:59.394Z,9.68
2023-04-07T11:36:34.198Z,9.90
2023-04-07T11:39:03.052Z,9.88
2023-04-07T11:41:32.888Z,10.11
2023-04-07T11:44:12.730Z,10.01
2023-04-07T11:46:59.830Z,10.38
2023-04-07T11:49:28.611Z,10.54
2023-04-07T11:52:09.477Z,9.88
2023-04-07T11:54:47.454Z,9.19
2023-04-07T11:57:14.864Z,9.19
2023-04-07T11:59:41.953Z,9.20
2023-04-07T12:02:08.832Z,8.86
2023-04-07T12:04:37.902Z,9.87
2023-04-07T12:07:10.781Z,9.75
2023-04-07T12:09:38.329Z,9.60
2023-04-07T12:12:07.839Z,9.28
2023-04-07T12:14:35.278Z,9.52
2023-04-07T12:17:03.619Z,9.17
2023-04-07T12:19:39.743Z,9.52
2023-04-07T12:22:06.537Z,9.98
2023-04-07T12:24:33.111Z,9.58
2023-04-07T12:27:00.194Z,9.67
2023-04-07T12:29:26.933Z,10.02
2023-04-07T12:31:53.609Z,9.67
2023-04-07T12:34:20.736Z,9.64
2023-04-07T12:36:47.538Z,9.81
2023-04-07T12:39:15.176Z,9.58
2023-04-07T12:41:42.154Z,9.35
2023-04-07T12:44:08.768Z,9.80
2023-04-07T12:46:35.371Z,10.19
2023-04-07T12:49:02.792Z,9.23
2023-04-07T12:51:29.417Z,8.73
2023-04-07T12:53:56.062Z,8.93
2023-04-07T12:56:22.787Z,8.94
2023-04-07T12:58:49.442Z,9.99
2023-04-07T13:01:16.845Z,9.76
2023-04-07T13:03:44.058Z,9.84
2023-04-07T13:06:11.755Z,9.94
2023-04-07T13:08:39.566Z,10.06
2023-04-07T13:11:06.595Z,9.81
2023-04-07T13:13:33.902Z,9.65
2023-04-07T13:16:00.998Z,9.77
2023-04-07T13:18:32.834Z,9.51
2023-04-07T13:21:33.716Z,8.67
2023-04-07T13:23:46.581Z,9.27
2023-04-07T13:26:13.224Z,9.67
2023-04-07T13:28:39.910Z,9.29
2023-04-07T13:31:07.671Z,9.12
2023-04-07T13:33:34.912Z,9.95
2023-04-07T13:36:02.307Z,10.35
2023-04-07T13:38:29.046Z,8.71
2023-04-07T13:40:55.646Z,9.27
2023-04-07T13:43:22.269Z,10.37
2023-04-07T13:45:49.467Z,10.15
2023-04-07T13:48:16.195Z,10.01
2023-04-07T13:50:42.792Z,9.39
2023-04-07T13:53:09.502Z,9.09
2023-04-07T13:55:36.812Z,9.41
2023-04-07T13:58:03.435Z,8.79
2023-04-07T14:00:30.266Z,8.98
2023-04-07T14:02:57.213Z,8.75
2023-04-07T14:05:24.751Z,8.31
2023-04-07T14:07:51.609Z,9.17
2023-04-07T14:10:18.349Z,9.73
2023-04-07T14:12:45.042Z,9.58
2023-04-07T14:15:11.888Z,8.60
2023-04-07T14:17:38.614Z,8.89
2023-04-07T14:20:06.137Z,8.37
2023-04-07T14:22:32.762Z,8.70
2023-04-07T14:24:59.730Z,8.73
2023-04-07T14:27:26.428Z,8.22
2023-04-07T14:29:54.130Z,8.41
2023-04-07T14:32:20.920Z,8.84
2023-04-07T14:34:47.907Z,8.49
2023-04-07T14:37:16.183Z,8.62
2023-04-07T14:39:45.887Z,8.43
2023-04-07T14:42:22.514Z,8.41
2023-04-07T14:44:49.842Z,9.00
2023-04-07T14:47:16.481Z,8.54
2023-04-07T14:49:43.159Z,8.87
2023-04-07T14:52:10.506Z,8.36
2023-04-07T14:54:37.379Z,7.92
2023-04-07T14:57:04.004Z,8.06
2023-04-07T14:59:30.624Z,8.27
2023-04-07T15:01:57.319Z,8.16
2023-04-07T15:04:24.126Z,8.34
2023-04-07T15:06:50.945Z,8.70
2023-04-07T15:09:19.035Z,8.93
2023-04-07T15:11:48.541Z,8.66
2023-04-07T15:14:15.424Z,8.66
2023-04-07T15:16:42.180Z,9.09
2023-04-07T15:19:08.867Z,8.64
2023-04-07T15:21:35.696Z,8.38
2023-04-07T15:24:02.318Z,8.54
2023-04-07T15:26:28.939Z,8.05
2023-04-07T15:28:55.761Z,7.88
2023-04-07T15:31:23.513Z,8.67
2023-04-07T15:33:51.029Z,8.57
2023-04-07T15:36:17.589Z,9.07
2023-04-07T15:38:44.226Z,9.04
2023-04-07T15:41:14.688Z,8.64
2023-04-07T15:43:41.282Z,8.71
2023-04-07T15:46:08.061Z,8.54
2023-04-07T15:48:34.655Z,8.59
2023-04-07T15:51:01.283Z,8.54
2023-04-07T15:53:27.899Z,8.24
2023-04-07T15:55:54.944Z,8.89
2023-04-07T15:58:21.544Z,8.20
2023-04-07T16:00:48.219Z,7.86
2023-04-07T16:03:15.150Z,8.34
2023-04-07T16:05:42.019Z,8.16
2023-04-07T16:08:08.638Z,7.98
2023-04-07T16:10:35.295Z,8.27
2023-04-07T16:13:01.875Z,8.58
2023-04-07T16:15:39.246Z,8.91
2023-04-07T16:18:10.134Z,8.50
2023-04-07T16:20:36.753Z,7.91
2023-04-07T16:23:03.484Z,7.36
2023-04-07T16:25:31.307Z,7.74
2023-04-07T16:27:58.185Z,8.15
2023-04-07T16:30:25.441Z,7.88
2023-04-07T16:32:52.372Z,8.56
2023-04-07T16:35:19.629Z,8.15
2023-04-07T16:37:46.589Z,8.14
2023-04-07T16:40:13.991Z,8.14
2023-04-07T16:42:40.992Z,7.94
2023-04-07T16:45:08.265Z,8.28
2023-04-07T16:47:35.465Z,8.26
2023-04-07T16:50:04.039Z,8.59
2023-04-07T16:52:31.009Z,8.78
2023-04-07T16:54:58.215Z,8.60
2023-04-07T16:57:24.824Z,8.41
2023-04-07T16:59:51.446Z,8.83
2023-04-07T17:02:18.182Z,8.91
2023-04-07T17:04:44.985Z,9.30
2023-04-07T17:07:12.076Z,9.33
2023-04-07T17:09:39.461Z,8.93
2023-04-07T17:12:06.496Z,8.67
2023-04-07T17:14:33.549Z,8.37
2023-04-07T17:17:00.914Z,8.40
2023-04-07T17:19:27.770Z,8.75
2023-04-07T17:21:54.407Z,8.52
2023-04-07T17:24:21.169Z,8.66
2023-04-07T17:26:47.998Z,8.95
2023-04-07T17:29:15.670Z,9.24
2023-04-07T17:31:42.507Z,9.26
2023-04-07T17:34:09.133Z,9.24
2023-04-07T17:36:37.603Z,9.39
2023-04-07T17:39:05.162Z,9.35
2023-04-07T17:41:34.566Z,9.35
2023-04-07T17:44:02.308Z,8.92
2023-04-07T17:46:29.370Z,9.23
2023-04-07T17:49:00.325Z,9.45
2023-04-07T17:51:27.669Z,9.33
2023-04-07T17:53:54.963Z,9.54
2023-04-07T17:56:21.687Z,9.50
2023-04-07T17:58:48.523Z,9.41
2023-04-07T18:01:15.830Z,9.36
2023-04-07T18:03:42.935Z,9.43
2023-04-07T18:06:09.749Z,9.50
2023-04-07T18:08:36.650Z,9.23
2023-04-07T18:11:05.911Z,9.16
2023-04-07T18:13:34.035Z,9.45
2023-04-07T18:16:00.848Z,9.45
2023-04-07T18:18:27.614Z,9.46
2023-04-07T18:20:54.265Z,9.34
2023-04-07T18:23:20.849Z,9.55
2023-04-07T18:25:47.593Z,9.47
2023-04-07T18:28:14.250Z,9.56
2023-04-07T18:30:40.835Z,9.16
2023-04-07T18:33:07.598Z,9.42
2023-04-07T18:35:34.489Z,9.73
2023-04-07T18:38:01.142Z,9.70
2023-04-07T18:40:30.018Z,9.57
2023-04-07T18:42:56.686Z,9.78
2023-04-07T18:45:23.343Z,9.63
2023-04-07T18:47:51.254Z,9.72
2023-04-07T18:50:18.299Z,9.42
2023-04-07T18:52:44.918Z,9.40
2023-04-07T18:55:11.531Z,9.45
2023-04-07T18:57:39.462Z,9.66
2023-04-07T19:00:06.723Z,9.61
2023-04-07T19:02:33.584Z,9.45
2023-04-07T19:05:00.371Z,9.31
2023-04-07T19:07:26.994Z,9.35
2023-04-07T19:09:53.914Z,9.25
2023-04-07T19:12:20.924Z,8.98
2023-04-07T19:14:47.530Z,8.96
2023-04-07T19:17:14.243Z,8.80
2023-04-07T19:19:40.888Z,8.74
2023-04-07T19:22:07.553Z,8.05
2023-04-07T19:24:34.273Z,7.77
2023-04-07T19:27:02.228Z,8.26
2023-04-07T19:29:29.304Z,7.91
2023-04-07T19:31:57.404Z,7.30
2023-04-07T19:34:24.104Z,8.07
2023-04-07T19:36:50.767Z,8.69
2023-04-07T19:39:17.406Z,8.63
2023-04-07T19:41:44.028Z,7.17
2023-04-07T19:44:10.921Z,8.45
2023-04-07T19:46:37.675Z,7.81
2023-04-07T19:49:04.267Z,8.03
2023-04-07T19:51:31.144Z,8.47
2023-04-07T19:53:57.813Z,9.03
2023-04-07T19:56:25.152Z,8.99
2023-04-07T19:58:51.885Z,9.02
2023-04-07T20:01:19.236Z,9.10
2023-04-07T20:03:46.838Z,9.27
2023-04-07T20:06:15.114Z,9.47
2023-04-07T20:08:42.355Z,9.59
2023-04-07T20:11:13.035Z,9.32
2023-04-07T20:13:41.184Z,9.34
2023-04-07T20:16:08.297Z,9.53
2023-04-07T20:18:34.977Z,9.36
2023-04-07T20:21:02.843Z,9.46
2023-04-07T20:23:29.584Z,9.50
2023-04-07T20:25:56.470Z,9.45
2023-04-07T20:28:23.422Z,9.56
2023-04-07T20:30:50.580Z,9.60
2023-04-07T20:33:17.287Z,9.42
2023-04-07T20:35:44.104Z,9.33
2023-04-07T20:38:11.170Z,9.13
2023-04-07T20:40:37.867Z,9.15
2023-04-07T20:43:05.541Z,9.30
2023-04-07T20:45:33.174Z,9.02
2023-04-07T20:48:00.240Z,8.80
2023-04-07T20:50:28.521Z,8.68
2023-04-07T20:52:55.170Z,8.79
2023-04-07T20:55:21.877Z,8.58
2023-04-07T20:57:50.267Z,8.89
2023-04-07T21:00:18.777Z,8.71
2023-04-07T21:02:46.951Z,8.63
2023-04-07T21:05:13.889Z,8.57
2023-04-07T21:07:40.603Z,8.74
2023-04-07T21:10:08.743Z,8.79
2023-04-07T21:12:35.952Z,9.19
2023-04-07T21:15:02.554Z,9.08
2023-04-07T21:17:29.252Z,9.22
2023-04-07T21:19:55.989Z,9.28
2023-04-07T21:22:22.582Z,9.35
2023-04-07T21:24:49.216Z,9.28
2023-04-07T21:27:16.564Z,8.86
2023-04-07T21:29:43.224Z,8.40
2023-04-07T21:32:10.622Z,8.43
2023-04-07T21:34:37.335Z,8.40
2023-04-07T21:37:04.007Z,8.54
2023-04-07T21:39:30.935Z,8.79
2023-04-07T21:41:57.653Z,8.95
2023-04-07T21:44:24.308Z,9.12
2023-04-07T21:46:51.324Z,9.26
2023-04-07T21:49:21.984Z,9.39
2023-04-07T21:51:49.343Z,9.25
2023-04-07T21:54:16.071Z,9.38
2023-04-07T21:56:43.040Z,9.43
2023-04-07T21:59:09.614Z,9.31
2023-04-07T22:01:36.385Z,9.26
2023-04-07T22:04:03.058Z,8.98
2023-04-07T22:06:29.748Z,8.88
2023-04-07T22:09:01.869Z,8.69
2023-04-07T22:11:29.572Z,8.57
2023-04-07T22:13:56.145Z,8.79
2023-04-07T22:16:22.848Z,8.95
2023-04-07T22:18:49.753Z,9.00
2023-04-07T22:21:18.024Z,9.07
2023-04-07T22:23:44.942Z,8.95
2023-04-07T22:26:11.668Z,8.90
2023-04-07T22:28:38.285Z,7.96
2023-04-07T22:31:05.179Z,8.52
2023-04-07T22:33:31.801Z,8.53
2023-04-07T22:35:58.489Z,8.87
2023-04-07T22:38:25.377Z,8.95
2023-04-07T22:40:52.005Z,8.58
2023-04-07T22:43:18.855Z,8.90
2023-04-07T22:45:45.583Z,9.13
2023-04-07T22:48:12.694Z,9.03
2023-04-07T22:50:39.468Z,8.95
2023-04-07T22:53:07.427Z,9.07
2023-04-07T22:55:34.827Z,8.71
2023-04-07T22:58:02.225Z,8.90
2023-04-07T23:00:28.910Z,8.82
2023-04-07T23:02:55.819Z,8.49
2023-04-07T23:05:22.709Z,8.29
2023-04-07T23:07:51.347Z,8.37
2023-04-07T23:10:18.064Z,8.44
2023-04-07T23:12:44.680Z,8.65
2023-04-07T23:15:11.482Z,8.71
2023-04-07T23:17:38.118Z,8.56
2023-04-07T23:20:05.218Z,8.96
2023-04-07T23:22:31.862Z,8.95
2023-04-07T23:24:58.422Z,8.54
2023-04-07T23:27:25.038Z,8.67
2023-04-07T23:29:51.752Z,8.24
2023-04-07T23:32:18.530Z,8.25
2023-04-07T23:34:45.131Z,8.52
2023-04-07T23:37:11.745Z,8.41
2023-04-07T23:39:39.169Z,8.21
2023-04-07T23:42:05.804Z,8.15
2023-04-07T23:44:32.379Z,8.28
2023-04-07T23:46:58.998Z,8.25
2023-04-07T23:49:26.154Z,8.30
2023-04-07T23:51:52.806Z,8.31
2023-04-07T23:54:19.383Z,8.23
2023-04-07T23:56:46.035Z,8.04
2023-04-07T23:59:13.346Z,8.27
